TimeCET,TemperatureF,Dew PointF,Humidity,Sea Level PressureIn,VisibilityMPH,Wind Direction,Wind SpeedMPH,Gust SpeedMPH,PrecipitationIn,Events,Conditions,WindDirDegrees,DateUTC
12:00 AM,43,42,95,30.49,9,WNW,4.5,,,,Mostly Cloudy,300,2013-12-01 23:00:00
12:20 AM,42.8,42.8,100,30.48,6.2,WNW,3.5,-,N/A,,Mostly Cloudy,300,2013-12-01 23:20:00
12:50 AM,42.8,42.8,100,30.48,6.2,WNW,3.5,-,N/A,,Mostly Cloudy,290,2013-12-01 23:50:00
1:00 AM,42,41,94,30.51,7,WNW,4.5,,,,Partly Cloudy,290,2013-12-02 00:00:00
1:20 AM,42.8,41.0,93,30.48,6.2,NW,4.6,-,N/A,,Mostly Cloudy,320,2013-12-02 00:20:00
1:50 AM,41.0,39.2,93,30.48,6.2,NNW,3.5,-,N/A,,Mostly Cloudy,330,2013-12-02 00:50:00
2:00 AM,41,39,92,30.51,7,NNW,2.2,,,,Mostly Cloudy,330,2013-12-02 01:00:00
2:20 AM,41.0,41.0,100,30.48,6.2,NNW,2.3,-,N/A,,Mostly Cloudy,330,2013-12-02 01:20:00
2:50 AM,41.0,41.0,100,30.48,6.2,NW,2.3,-,N/A,,Mostly Cloudy,320,2013-12-02 01:50:00
3:00 AM,40,39,95,30.52,7,NW,2.2,,,,Mostly Cloudy,320,2013-12-02 02:00:00
3:20 AM,39.2,39.2,100,30.51,6.2,NW,1.2,-,N/A,,Mostly Cloudy,320,2013-12-02 02:20:00
3:50 AM,39.2,39.2,100,30.51,6.2,NNW,2.3,-,N/A,,Mostly Cloudy,330,2013-12-02 02:50:00
4:00 AM,40,39,95,30.53,7,NNW,2.2,,,,Mostly Cloudy,330,2013-12-02 03:00:00
4:20 AM,41.0,41.0,100,30.51,6.2,North,3.5,-,N/A,,Mostly Cloudy,350,2013-12-02 03:20:00
4:50 AM,41.0,41.0,100,30.51,6.2,North,3.5,-,N/A,,Mostly Cloudy,10,2013-12-02 03:50:00
5:00 AM,41,39,92,30.53,7,North,2.2,,,,Mostly Cloudy,10,2013-12-02 04:00:00
5:20 AM,41.0,41.0,100,30.51,6.2,NNW,1.2,-,N/A,,Mostly Cloudy,330,2013-12-02 04:20:00
5:50 AM,41.0,41.0,100,30.51,6.2,WNW,1.2,-,N/A,,Mostly Cloudy,300,2013-12-02 04:50:00
6:00 AM,40,39,96,30.54,6,WNW,2.2,,,,Mostly Cloudy,300,2013-12-02 05:00:00
6:20 AM,41.0,41.0,100,30.51,5.6,Variable,1.2,-,N/A,,Mostly Cloudy,0,2013-12-02 05:20:00
6:50 AM,41.0,41.0,100,30.51,5.6,Variable,1.2,-,N/A,,Mostly Cloudy,0,2013-12-02 05:50:00
7:00 AM,40,40,98,30.54,6,SE,2.2,,,,Mostly Cloudy,140,2013-12-02 06:00:00
7:20 AM,41.0,41.0,100,30.54,6.2,Variable,1.2,-,N/A,,Mostly Cloudy,0,2013-12-02 06:20:00
7:50 AM,41.0,41.0,100,30.54,6.2,WNW,1.2,-,N/A,,Mostly Cloudy,290,2013-12-02 06:50:00
8:00 AM,40,39,97,30.56,9,NW,2.2,,,,Mostly Cloudy,310,2013-12-02 07:00:00
8:20 AM,41.0,41.0,100,30.54,6.2,Calm,Calm,-,N/A,,Mostly Cloudy,0,2013-12-02 07:20:00
8:50 AM,41.0,41.0,100,30.54,6.2,Calm,Calm,-,N/A,,Mostly Cloudy,0,2013-12-02 07:50:00
9:00 AM,40,39,95,30.57,7,Calm,Calm,,,,Mostly Cloudy,,2013-12-02 08:00:00
9:20 AM,39.2,39.2,100,30.57,6.2,Variable,1.2,-,N/A,Fog,Shallow Fog,0,2013-12-02 08:20:00
9:50 AM,41.0,39.2,93,30.57,6.2,Variable,1.2,-,N/A,Fog,Shallow Fog,0,2013-12-02 08:50:00
10:00 AM,41,39,92,30.59,7,West,2.2,,,Fog,Patches of Fog,270,2013-12-02 09:00:00
10:20 AM,42.8,39.2,87,30.57,6.2,SW,1.2,-,N/A,,Scattered Clouds,230,2013-12-02 09:20:00
10:50 AM,44.6,37.4,76,30.57,-9999.0,Variable,1.2,-,N/A,,Clear,0,2013-12-02 09:50:00
11:00 AM,45,39,71,30.59,9,West,2.2,,,,Clear,270,2013-12-02 10:00:00
11:20 AM,46.4,39.2,76,30.57,-9999.0,Variable,1.2,-,N/A,,Clear,0,2013-12-02 10:20:00
11:50 AM,46.4,37.4,71,30.57,6.2,NE,1.2,-,N/A,,Scattered Clouds,50,2013-12-02 10:50:00
12:00 PM,46,38,63,30.58,12,NE,2.2,,,,Scattered Clouds,40,2013-12-02 11:00:00
12:20 PM,46.4,37.4,71,30.57,6.2,East,2.3,-,N/A,,Scattered Clouds,90,2013-12-02 11:20:00
12:50 PM,46.4,37.4,71,30.54,6.2,East,2.3,-,N/A,,Scattered Clouds,100,2013-12-02 11:50:00
1:00 PM,46,37,63,30.57,12,North,2.2,,,,Partly Cloudy,0,2013-12-02 12:00:00
1:20 PM,46.4,37.4,71,30.54,6.2,NNE,2.3,-,N/A,,Scattered Clouds,20,2013-12-02 12:20:00
1:50 PM,46.4,39.2,76,30.54,6.2,Variable,3.5,-,N/A,,Scattered Clouds,0,2013-12-02 12:50:00
2:00 PM,46,38,65,30.57,12,SE,2.2,,,,Partly Cloudy,130,2013-12-02 13:00:00
2:20 PM,44.6,37.4,76,30.54,6.2,East,3.5,-,N/A,,Scattered Clouds,90,2013-12-02 13:20:00
2:50 PM,44.6,39.2,81,30.54,6.2,East,2.3,-,N/A,,Scattered Clouds,100,2013-12-02 13:50:00
3:00 PM,45,38,67,30.55,12,East,2.2,,,,Scattered Clouds,80,2013-12-02 14:00:00
3:20 PM,44.6,39.2,81,30.54,6.2,ENE,3.5,-,N/A,,Scattered Clouds,70,2013-12-02 14:20:00
3:50 PM,44.6,37.4,76,30.54,6.2,East,3.5,-,N/A,,Mostly Cloudy,100,2013-12-02 14:50:00
4:00 PM,44,37,68,30.55,12,ESE,2.2,,,,Scattered Clouds,110,2013-12-02 15:00:00
4:20 PM,42.8,37.4,81,30.51,-9999.0,ESE,3.5,-,N/A,,Clear,110,2013-12-02 15:20:00
4:50 PM,41.0,37.4,87,30.51,-9999.0,ESE,2.3,-,N/A,,Clear,110,2013-12-02 15:50:00
5:00 PM,42,36,73,30.54,12,ESE,2.2,,,,Clear,110,2013-12-02 16:00:00
5:20 PM,41.0,35.6,81,30.51,-9999.0,East,2.3,-,N/A,,Clear,90,2013-12-02 16:20:00
5:50 PM,39.2,35.6,87,30.51,-9999.0,ENE,3.5,-,N/A,,Clear,60,2013-12-02 16:50:00
6:00 PM,38,35,87,30.54,9,ENE,2.2,,,,Clear,70,2013-12-02 17:00:00
6:20 PM,39.2,35.6,87,30.51,-9999.0,East,2.3,-,N/A,,Clear,100,2013-12-02 17:20:00
6:50 PM,37.4,35.6,93,30.51,-9999.0,East,2.3,-,N/A,,Clear,90,2013-12-02 17:50:00
7:00 PM,38,35,86,30.53,9,ENE,2.2,,,,Clear,70,2013-12-02 18:00:00
7:20 PM,35.6,33.8,93,30.51,-9999.0,ENE,4.6,-,N/A,,Clear,60,2013-12-02 18:20:00
7:50 PM,35.6,35.6,100,30.51,-9999.0,NE,4.6,-,N/A,,Clear,50,2013-12-02 18:50:00
8:00 PM,36,35,93,30.53,7,NE,4.5,,,,Clear,40,2013-12-02 19:00:00
8:20 PM,35.6,35.6,100,30.48,-9999.0,ENE,4.6,-,N/A,,Clear,70,2013-12-02 19:20:00
8:50 PM,33.8,32.0,93,30.48,-9999.0,East,3.5,-,N/A,,Clear,80,2013-12-02 19:50:00
9:00 PM,34,32,91,30.52,7,East,2.2,,,,Clear,80,2013-12-02 20:00:00
9:20 PM,32.0,32.0,100,30.48,6.2,East,1.2,-,N/A,Fog,Shallow Fog,100,2013-12-02 20:20:00
9:50 PM,32.0,32.0,100,30.48,6.2,Variable,1.2,-,N/A,Fog,Shallow Fog,0,2013-12-02 20:50:00
10:00 PM,32,31,96,30.51,7,East,2.2,,,Fog,Patches of Fog,90,2013-12-02 21:00:00
10:20 PM,32.0,32.0,100,30.48,6.2,Variable,1.2,-,N/A,Fog,Shallow Fog,0,2013-12-02 21:20:00
10:50 PM,32.0,32.0,100,30.48,6.2,SSE,1.2,-,N/A,Fog,Shallow Fog,160,2013-12-02 21:50:00
11:00 PM,32,31,97,30.51,7,South,2.2,,,Fog,Patches of Fog,190,2013-12-02 22:00:00
11:20 PM,32.0,32.0,100,30.48,6.2,ESE,2.3,-,N/A,Fog,Patches of Fog,110,2013-12-02 22:20:00
11:50 PM,33.8,33.8,100,30.45,6.2,ESE,2.3,-,N/A,Fog,Shallow Fog,110,2013-12-02 22:50:00